Time;durP1;ratioP1;P1;durP2;ratioP2;P2;SDS_P1;SDS_P2;PMS_P1;PMS_P2;Temp;Humidity;BMP_temperature;BMP_pressure;BME280_temperature;BME280_humidity;BME280_pressure;Samples;Min_cycle;Max_cycle;Signal;HPM_P1;HPM_P2
2022/01/07 00:01:30;;;;;;;15.50;5.40;;;3.80;99.90;;;;;;5072528;28;20044;-81
2022/01/07 00:03:56;;;;;;;15.45;5.43;;;3.80;99.90;;;;;;5073936;28;20118;-81
2022/01/07 00:06:22;;;;;;;12.90;4.88;;;3.80;99.90;;;;;;5069308;28;20466;-83
2022/01/07 00:08:48;;;;;;;14.15;4.65;;;3.80;99.90;;;;;;5074391;28;20040;-82
2022/01/07 00:11:14;;;;;;;11.43;4.90;;;3.90;99.90;;;;;;5057560;28;20076;-81
2022/01/07 00:13:40;;;;;;;14.38;4.75;;;3.90;99.90;;;;;;5074201;28;20483;-82
2022/01/07 00:16:06;;;;;;;11.35;4.65;;;3.80;99.90;;;;;;5065663;28;20111;-83
2022/01/07 00:18:32;;;;;;;13.00;5.32;;;3.80;99.90;;;;;;5071457;28;20029;-81
2022/01/07 00:20:58;;;;;;;11.30;4.68;;;3.80;99.90;;;;;;5072205;28;20040;-81
2022/01/07 00:23:24;;;;;;;10.73;4.45;;;3.80;99.90;;;;;;5050583;28;20132;-81
2022/01/07 00:25:50;;;;;;;13.10;4.82;;;3.80;99.90;;;;;;5055639;28;20049;-82
2022/01/07 00:28:17;;;;;;;12.77;4.70;;;3.80;99.90;;;;;;5068145;28;20063;-82
2022/01/07 00:30:43;;;;;;;12.93;4.57;;;3.80;99.90;;;;;;5078210;28;20033;-81
2022/01/07 00:33:09;;;;;;;15.65;5.05;;;3.80;99.90;;;;;;5073879;28;20118;-80
2022/01/07 00:35:35;;;;;;;13.75;5.22;;;3.70;99.90;;;;;;5072688;28;20049;-81
2022/01/07 00:38:02;;;;;;;12.52;4.65;;;3.70;99.90;;;;;;5071853;28;20040;-81
2022/01/07 00:40:27;;;;;;;11.43;5.15;;;3.60;99.90;;;;;;5050292;28;20058;-80
2022/01/07 00:42:54;;;;;;;13.70;5.57;;;3.60;99.90;;;;;;5036362;28;20514;-80
2022/01/07 00:45:22;;;;;;;14.93;5.47;;;3.50;99.90;;;;;;5072065;28;20032;-81
2022/01/07 00:47:49;;;;;;;14.45;5.03;;;3.50;99.90;;;;;;5072797;28;20033;-80
2022/01/07 00:50:16;;;;;;;12.50;5.30;;;3.40;99.90;;;;;;5056231;28;20041;-79
2022/01/07 00:52:42;;;;;;;15.13;5.40;;;3.30;99.90;;;;;;5072144;28;20048;-80
2022/01/07 00:55:09;;;;;;;12.43;5.20;;;3.30;99.90;;;;;;5071644;28;20044;-80
2022/01/07 00:57:35;;;;;;;15.38;6.25;;;3.20;99.90;;;;;;5055894;28;20444;-79
2022/01/07 01:00:04;;;;;;;11.20;5.13;;;3.20;99.90;;;;;;5055213;28;20069;-80
2022/01/07 01:02:30;;;;;;;16.17;5.50;;;3.20;99.90;;;;;;5067808;28;20506;-80
2022/01/07 01:04:55;;;;;;;11.23;5.23;;;3.10;99.90;;;;;;5056209;28;20080;-80
2022/01/07 01:07:21;;;;;;;17.30;6.18;;;3.10;99.90;;;;;;5072302;28;20041;-80
2022/01/07 01:09:46;;;;;;;14.15;6.20;;;3.10;99.90;;;;;;5055629;28;20468;-80
2022/01/07 01:12:12;;;;;;;13.40;5.57;;;3.00;99.90;;;;;;5073057;28;20043;-79
2022/01/07 01:14:38;;;;;;;11.27;5.38;;;3.00;99.90;;;;;;5054409;28;20036;-79
2022/01/07 01:17:04;;;;;;;13.40;5.40;;;3.00;99.90;;;;;;5054865;28;20047;-79
2022/01/07 01:19:30;;;;;;;11.50;5.32;;;3.00;99.90;;;;;;5035193;28;20079;-79
2022/01/07 01:21:56;;;;;;;12.68;5.70;;;3.00;99.90;;;;;;5102815;28;20045;-79
2022/01/07 01:24:22;;;;;;;14.18;5.47;;;3.00;99.90;;;;;;5049870;28;20052;-81
2022/01/07 01:26:48;;;;;;;16.65;5.95;;;2.90;99.90;;;;;;5062174;28;20048;-82
2022/01/07 01:29:13;;;;;;;16.85;5.95;;;2.90;99.90;;;;;;5053575;28;20043;-81
2022/01/07 01:31:39;;;;;;;13.55;5.20;;;2.90;99.90;;;;;;5055759;28;20044;-81
2022/01/07 01:34:05;;;;;;;13.77;5.80;;;2.90;99.90;;;;;;5073103;28;20032;-82
2022/01/07 01:36:32;;;;;;;14.38;5.57;;;2.80;99.90;;;;;;5072184;28;20391;-82
2022/01/07 01:38:59;;;;;;;13.60;5.95;;;2.80;99.90;;;;;;5062895;28;20048;-81
2022/01/07 01:41:25;;;;;;;10.90;5.50;;;2.80;99.90;;;;;;5071681;28;20037;-81
2022/01/07 01:43:51;;;;;;;11.32;5.70;;;2.80;99.90;;;;;;5071919;28;20093;-81
2022/01/07 01:46:17;;;;;;;14.38;5.43;;;2.80;99.90;;;;;;5055727;28;20036;-81
2022/01/07 01:48:43;;;;;;;;;;;2.80;99.90;;;;;;5039755;28;20044;-81
2022/01/07 01:51:09;;;;;;;11.10;5.30;;;2.80;99.90;;;;;;5072435;28;20288;-80
2022/01/07 01:53:34;;;;;;;13.60;5.65;;;2.80;99.90;;;;;;5072404;28;20098;-81
2022/01/07 01:56:00;;;;;;;14.07;6.00;;;2.70;99.90;;;;;;5055837;28;20040;-81
2022/01/07 01:58:26;;;;;;;11.27;5.55;;;2.70;99.90;;;;;;5068334;28;20049;-81
2022/01/07 02:00:52;;;;;;;11.00;5.80;;;2.70;99.90;;;;;;5049465;28;20496;-81
2022/01/07 02:03:18;;;;;;;13.10;5.68;;;2.70;99.90;;;;;;5073737;28;20051;-81
2022/01/07 02:05:47;;;;;;;18.33;6.13;;;2.70;99.90;;;;;;5073271;28;20040;-80
2022/01/07 02:08:13;;;;;;;14.35;5.90;;;2.60;99.90;;;;;;5060079;28;20032;-81
2022/01/07 02:10:39;;;;;;;10.98;5.32;;;2.60;99.90;;;;;;5062749;28;20033;-81
2022/01/07 02:13:05;;;;;;;15.35;5.22;;;2.60;99.90;;;;;;5067271;28;20121;-81
2022/01/07 02:15:31;;;;;;;12.25;6.40;;;2.60;99.90;;;;;;5058940;28;20472;-81
2022/01/07 02:17:57;;;;;;;14.90;6.38;;;2.60;99.90;;;;;;5059146;28;20101;-82
2022/01/07 02:20:26;;;;;;;8.80;5.53;;;2.60;99.90;;;;;;5072836;28;20044;-81
2022/01/07 02:22:53;;;;;;;13.40;6.25;;;2.60;99.90;;;;;;5049575;28;20045;-81
2022/01/07 02:25:20;;;;;;;11.57;5.68;;;2.70;99.90;;;;;;5058503;28;20127;-81
2022/01/07 02:27:47;;;;;;;12.15;5.97;;;2.70;99.90;;;;;;5074866;28;20056;-81
2022/01/07 02:30:23;;;;;;;10.40;6.30;;;2.70;99.90;;;;;;5075853;28;20395;-81
2022/01/07 02:32:49;;;;;;;15.48;6.57;;;2.70;99.90;;;;;;5059184;28;20455;-80
2022/01/07 02:35:17;;;;;;;12.32;6.03;;;2.70;99.90;;;;;;5074406;28;20036;-81
2022/01/07 02:37:43;;;;;;;11.43;6.47;;;2.70;99.90;;;;;;5072691;28;20056;-73
2022/01/07 02:40:10;;;;;;;11.38;6.07;;;2.70;99.90;;;;;;5066712;28;20055;-73
2022/01/07 02:42:36;;;;;;;11.00;6.78;;;2.70;99.90;;;;;;5064999;28;20044;-73
2022/01/07 02:45:05;;;;;;;9.88;6.20;;;2.80;99.90;;;;;;5070328;28;20047;-72
2022/01/07 02:47:38;;;;;;;11.55;6.30;;;2.70;99.90;;;;;;5071441;28;20123;-71
2022/01/07 02:50:05;;;;;;;10.05;6.07;;;2.80;99.90;;;;;;5072878;28;20045;-78
2022/01/07 02:52:31;;;;;;;9.63;6.32;;;2.70;99.90;;;;;;5063410;28;20051;-81
2022/01/07 02:54:57;;;;;;;10.27;6.28;;;2.70;99.90;;;;;;5068875;28;20044;-82
2022/01/07 02:57:23;;;;;;;12.73;6.10;;;2.70;99.90;;;;;;5039616;28;20340;-81
2022/01/07 02:59:49;;;;;;;10.68;5.70;;;2.70;99.90;;;;;;5074310;28;20041;-79
2022/01/07 03:02:14;;;;;;;11.80;6.97;;;2.70;99.90;;;;;;5050834;28;20044;-80
2022/01/07 03:04:40;;;;;;;9.10;6.80;;;2.70;99.90;;;;;;5074471;28;20381;-80
2022/01/07 03:07:06;;;;;;;12.30;6.55;;;2.70;99.90;;;;;;5071798;28;20051;-79
2022/01/07 03:09:32;;;;;;;10.93;6.80;;;2.70;99.90;;;;;;5056921;28;20173;-79
2022/01/07 03:11:57;;;;;;;10.23;6.40;;;2.70;99.90;;;;;;5057547;28;20041;-71
2022/01/07 03:14:25;;;;;;;10.60;6.70;;;2.70;99.90;;;;;;5071817;28;20290;-71
2022/01/07 03:16:50;;;;;;;10.85;7.10;;;2.70;99.90;;;;;;5054112;28;20638;-71
2022/01/07 03:19:16;;;;;;;10.38;6.50;;;2.70;99.90;;;;;;5054471;28;20049;-71
2022/01/07 03:21:42;;;;;;;9.25;6.53;;;2.70;99.90;;;;;;5071327;28;20048;-72
2022/01/07 03:24:08;;;;;;;11.52;6.45;;;2.70;99.90;;;;;;5071832;28;20055;-71
2022/01/07 03:26:34;;;;;;;11.10;6.78;;;2.70;99.90;;;;;;5052922;28;20040;-72
2022/01/07 03:28:59;;;;;;;12.75;6.88;;;2.70;99.90;;;;;;5055526;28;20567;-72
2022/01/07 03:31:25;;;;;;;9.85;6.50;;;2.60;99.90;;;;;;5068457;28;20033;-71
2022/01/07 03:33:51;;;;;;;8.93;6.63;;;2.70;99.90;;;;;;5055197;28;20045;-71
2022/01/07 03:36:16;;;;;;;8.77;5.15;;;2.70;99.90;;;;;;5053067;28;20048;-71
2022/01/07 03:38:42;;;;;;;11.43;6.88;;;2.70;99.90;;;;;;5070319;28;20050;-71
2022/01/07 03:41:08;;;;;;;10.82;7.30;;;2.70;99.90;;;;;;5067211;28;20446;-71
2022/01/07 03:43:34;;;;;;;12.10;7.82;;;2.70;99.90;;;;;;5070006;28;20422;-71
2022/01/07 03:45:59;;;;;;;11.15;7.57;;;2.70;99.90;;;;;;5071077;28;20109;-71
2022/01/07 03:48:25;;;;;;;11.65;7.13;;;2.80;99.90;;;;;;5055037;28;20032;-71
2022/01/07 03:50:51;;;;;;;10.65;5.93;;;2.70;99.90;;;;;;5054980;28;20089;-71
2022/01/07 03:53:17;;;;;;;9.77;7.60;;;2.70;99.90;;;;;;5070080;28;20036;-71
2022/01/07 03:55:42;;;;;;;11.23;7.57;;;2.80;99.90;;;;;;5051807;28;20127;-71
2022/01/07 03:58:08;;;;;;;13.30;7.90;;;2.80;99.90;;;;;;5069956;28;20036;-71
2022/01/07 04:00:39;;;;;;;8.17;7.07;;;2.80;99.90;;;;;;5061805;28;20099;-71
2022/01/07 04:03:08;;;;;;;12.35;7.93;;;2.80;99.90;;;;;;5048460;28;20286;-71
2022/01/07 04:05:34;;;;;;;11.30;7.75;;;2.80;99.90;;;;;;5053849;28;20407;-71
2022/01/07 04:08:00;;;;;;;12.85;7.90;;;2.80;99.90;;;;;;5054795;28;20032;-72
2022/01/07 04:10:25;;;;;;;11.20;7.97;;;2.80;99.90;;;;;;5053502;28;20427;-72
2022/01/07 04:12:51;;;;;;;11.95;8.05;;;2.80;99.90;;;;;;5061943;28;20033;-72
2022/01/07 04:15:18;;;;;;;12.38;7.70;;;2.80;99.90;;;;;;5045833;28;20049;-72
2022/01/07 04:17:47;;;;;;;12.85;7.85;;;2.90;99.90;;;;;;5055838;28;20044;-72
2022/01/07 04:20:16;;;;;;;9.05;7.22;;;2.80;99.90;;;;;;5067272;28;20044;-72
2022/01/07 04:22:43;;;;;;;12.00;7.63;;;2.80;99.90;;;;;;5069587;28;20127;-72
2022/01/07 04:25:12;;;;;;;;;;;2.80;99.90;;;;;;5036328;28;20047;-72
2022/01/07 04:27:38;;;;;;;8.98;7.10;;;2.90;99.90;;;;;;5066102;28;19940;-72
2022/01/07 04:30:05;;;;;;;13.13;7.57;;;2.80;99.90;;;;;;5050712;28;20044;-73
2022/01/07 04:32:30;;;;;;;13.18;7.07;;;2.90;99.90;;;;;;5048820;28;20387;-72
2022/01/07 04:34:56;;;;;;;12.13;7.93;;;2.90;99.90;;;;;;5032752;28;20041;-72
2022/01/07 04:37:22;;;;;;;10.90;6.90;;;2.90;99.90;;;;;;5049004;28;20678;-72
2022/01/07 04:39:48;;;;;;;12.17;7.27;;;2.90;99.90;;;;;;5066181;28;20040;-71
2022/01/07 04:42:13;;;;;;;10.13;6.90;;;2.90;99.90;;;;;;5050901;28;20860;-72
2022/01/07 04:44:40;;;;;;;9.38;6.88;;;2.90;99.90;;;;;;5049208;28;20039;-72
2022/01/07 04:47:07;;;;;;;10.98;8.18;;;2.90;99.90;;;;;;5053939;28;20037;-72
2022/01/07 04:49:33;;;;;;;10.38;7.35;;;3.00;99.90;;;;;;5061950;28;20124;-71
2022/01/07 04:51:59;;;;;;;9.05;7.55;;;3.00;99.90;;;;;;5063571;28;20127;-72
2022/01/07 04:54:24;;;;;;;12.57;8.55;;;2.90;99.90;;;;;;5050229;28;20093;-72
2022/01/07 04:56:50;;;;;;;13.02;8.02;;;3.00;99.90;;;;;;5067488;28;20514;-72
2022/01/07 04:59:15;;;;;;;11.93;7.67;;;3.10;99.90;;;;;;5036665;28;20549;-72
2022/01/07 05:01:41;;;;;;;12.33;7.90;;;3.00;99.90;;;;;;5061956;28;20385;-73
2022/01/07 05:04:07;;;;;;;11.50;8.32;;;3.10;99.90;;;;;;5069368;28;20869;-72
2022/01/07 05:06:45;;;;;;;10.87;7.67;;;3.10;99.90;;;;;;5050816;28;20037;-72
2022/01/07 05:09:16;;;;;;;10.50;7.68;;;3.10;99.90;;;;;;5055208;28;20044;-72
2022/01/07 05:11:46;;;;;;;11.63;7.57;;;3.20;99.90;;;;;;5047775;28;20342;-72
2022/01/07 05:14:13;;;;;;;12.20;8.20;;;3.10;99.90;;;;;;5061213;28;20839;-72
2022/01/07 05:16:38;;;;;;;11.93;8.27;;;3.20;99.90;;;;;;5047818;28;20053;-72
2022/01/07 05:19:04;;;;;;;12.48;8.13;;;3.20;99.90;;;;;;5066477;28;20075;-72
2022/01/07 05:21:30;;;;;;;9.55;7.40;;;3.10;99.90;;;;;;5047760;28;20040;-72
2022/01/07 05:23:56;;;;;;;11.00;7.70;;;3.20;99.90;;;;;;5068166;28;20068;-72
2022/01/07 05:26:23;;;;;;;10.48;7.88;;;3.20;99.90;;;;;;5068954;28;20040;-72
2022/01/07 05:28:50;;;;;;;9.77;7.45;;;3.30;99.90;;;;;;5067839;28;20127;-72
2022/01/07 05:31:22;;;;;;;10.88;7.60;;;3.30;99.90;;;;;;5058823;28;20049;-72
2022/01/07 05:33:48;;;;;;;13.00;7.45;;;3.30;99.90;;;;;;5066369;28;20071;-72
2022/01/07 05:36:14;;;;;;;9.77;7.47;;;3.30;99.90;;;;;;5049855;28;20046;-72
2022/01/07 05:38:40;;;;;;;12.60;8.07;;;3.30;99.90;;;;;;5051208;28;20127;-72
2022/01/07 05:41:05;;;;;;;9.38;6.95;;;3.40;99.90;;;;;;5070637;28;20548;-72
2022/01/07 05:43:31;;;;;;;10.02;7.70;;;3.40;99.90;;;;;;5053479;28;20571;-72
2022/01/07 05:45:57;;;;;;;10.27;7.53;;;3.40;99.90;;;;;;5067924;28;20033;-72
2022/01/07 05:48:23;;;;;;;10.82;6.90;;;3.40;99.90;;;;;;5062316;28;20044;-72
2022/01/07 05:50:49;;;;;;;10.98;8.15;;;3.40;99.90;;;;;;5097676;28;20055;-72
2022/01/07 05:53:15;;;;;;;10.95;7.22;;;3.40;99.90;;;;;;5068981;28;20041;-73
2022/01/07 05:55:41;;;;;;;8.18;6.47;;;3.30;99.90;;;;;;5056350;28;20051;-72
2022/01/07 05:58:06;;;;;;;11.73;7.50;;;3.40;99.90;;;;;;5053110;28;20033;-73
2022/01/07 06:00:32;;;;;;;12.48;7.80;;;3.40;99.90;;;;;;5058663;28;20052;-72
2022/01/07 06:02:58;;;;;;;12.18;7.28;;;3.40;99.90;;;;;;5044934;28;20044;-72
2022/01/07 06:05:24;;;;;;;10.40;6.97;;;3.40;99.90;;;;;;5049699;28;20052;-72
2022/01/07 06:07:49;;;;;;;11.48;7.90;;;3.40;99.90;;;;;;5070247;28;20036;-72
2022/01/07 06:10:15;;;;;;;12.37;7.67;;;3.40;99.90;;;;;;5054071;28;20397;-72
2022/01/07 06:12:40;;;;;;;11.70;7.82;;;3.40;99.90;;;;;;5069485;28;20288;-73
2022/01/07 06:15:07;;;;;;;9.02;7.47;;;3.40;99.90;;;;;;5047498;28;20123;-72
2022/01/07 06:17:33;;;;;;;12.65;7.40;;;3.40;99.90;;;;;;5064912;28;20040;-72
2022/01/07 06:19:59;;;;;;;9.80;7.80;;;3.40;99.90;;;;;;5054821;28;20059;-71
2022/01/07 06:22:24;;;;;;;12.85;7.68;;;3.40;99.90;;;;;;5067204;28;20051;-73
2022/01/07 06:24:50;;;;;;;9.00;6.93;;;3.40;99.90;;;;;;5065684;28;20052;-73
2022/01/07 06:27:16;;;;;;;11.73;7.85;;;3.40;99.90;;;;;;5061261;28;20151;-73
2022/01/07 06:29:42;;;;;;;10.23;7.70;;;3.40;99.90;;;;;;5047218;28;20040;-73
2022/01/07 06:32:08;;;;;;;10.77;7.38;;;3.40;99.90;;;;;;5052253;28;20115;-73
2022/01/07 06:34:34;;;;;;;9.85;7.07;;;3.40;99.90;;;;;;5053870;28;20039;-73
2022/01/07 06:37:00;;;;;;;11.65;7.55;;;3.40;99.90;;;;;;5065993;28;20033;-72
2022/01/07 06:39:28;;;;;;;11.27;6.88;;;3.40;99.90;;;;;;5068726;28;20499;-72
2022/01/07 06:41:55;;;;;;;9.75;6.50;;;3.40;99.90;;;;;;5070724;28;20045;-73
2022/01/07 06:44:21;;;;;;;;;;;3.40;99.90;;;;;;5051351;28;20044;-73
2022/01/07 06:46:47;;;;;;;9.20;6.90;;;3.40;99.90;;;;;;5062589;28;19920;-73
2022/01/07 06:49:16;;;;;;;9.07;6.80;;;3.40;99.90;;;;;;5072293;28;20484;-73
2022/01/07 06:51:43;;;;;;;10.25;7.45;;;3.40;99.90;;;;;;5048467;28;20037;-73
2022/01/07 06:54:11;;;;;;;10.27;7.22;;;3.50;99.90;;;;;;5072392;28;20075;-73
2022/01/07 06:56:43;;;;;;;7.85;7.00;;;3.50;99.90;;;;;;5038057;28;20048;-73
2022/01/07 06:59:12;;;;;;;10.05;7.20;;;3.50;99.90;;;;;;5039788;28;20059;-73
2022/01/07 07:01:42;;;;;;;8.68;6.85;;;3.50;99.90;;;;;;5060756;28;20396;-73
2022/01/07 07:04:08;;;;;;;9.43;6.95;;;3.50;99.90;;;;;;5042750;28;20048;-73
2022/01/07 07:06:34;;;;;;;10.32;7.60;;;3.50;99.90;;;;;;5061940;28;20037;-73
2022/01/07 07:09:01;;;;;;;;;;;3.50;99.90;;;;;;5067764;28;20033;-72
2022/01/07 07:11:26;;;;;;;9.60;7.53;;;3.50;99.90;;;;;;5063554;28;19916;-74
2022/01/07 07:13:52;;;;;;;9.13;7.28;;;3.60;99.90;;;;;;5062739;28;20468;-73
2022/01/07 07:16:18;;;;;;;9.68;7.20;;;3.50;99.90;;;;;;5062340;28;20041;-74
2022/01/07 07:18:44;;;;;;;10.50;7.35;;;3.50;99.90;;;;;;5041588;28;20047;-79
2022/01/07 07:21:09;;;;;;;10.75;7.30;;;3.60;99.90;;;;;;5066974;28;20033;-73
2022/01/07 07:23:35;;;;;;;10.98;7.65;;;3.60;99.90;;;;;;5066801;28;20047;-74
2022/01/07 07:26:01;;;;;;;11.50;8.15;;;3.60;99.90;;;;;;5064109;28;20079;-74
2022/01/07 07:28:26;;;;;;;10.27;7.63;;;3.70;99.90;;;;;;5034608;28;20148;-74
2022/01/07 07:30:58;;;;;;;10.43;7.78;;;3.70;99.90;;;;;;5058958;28;20302;-72
2022/01/07 07:38:36;;;;;;;12.65;8.80;;;3.80;99.90;;;;;;5056791;28;20059;-73
2022/01/07 07:41:01;;;;;;;9.30;8.02;;;3.80;99.90;;;;;;5068616;28;20050;-73
2022/01/07 07:43:27;;;;;;;13.73;8.57;;;3.80;99.90;;;;;;5067492;28;20266;-73
2022/01/07 07:45:53;;;;;;;11.95;8.50;;;3.80;99.90;;;;;;5062080;28;20106;-73
2022/01/07 07:48:19;;;;;;;11.07;8.57;;;3.80;99.90;;;;;;5070263;28;20710;-74
2022/01/07 07:50:46;;;;;;;11.75;8.40;;;3.80;99.90;;;;;;5063444;28;20734;-74
2022/01/07 07:53:11;;;;;;;12.52;9.25;;;3.90;99.90;;;;;;5063907;28;20040;-74
2022/01/07 07:55:37;;;;;;;14.38;9.23;;;3.90;99.90;;;;;;5052435;28;20037;-73
2022/01/07 07:58:03;;;;;;;11.40;9.27;;;3.90;99.90;;;;;;5070085;28;20170;-74
2022/01/07 08:00:29;;;;;;;12.20;9.40;;;4.00;99.90;;;;;;5080512;28;20049;-74
2022/01/07 08:02:55;;;;;;;13.40;9.90;;;4.00;99.90;;;;;;5049098;28;20048;-73
2022/01/07 08:05:20;;;;;;;14.95;10.13;;;4.00;99.90;;;;;;5050041;28;20052;-73
2022/01/07 08:07:46;;;;;;;14.48;9.93;;;4.00;99.90;;;;;;5068847;28;20452;-74
2022/01/07 08:10:12;;;;;;;12.40;9.65;;;4.00;99.90;;;;;;5053634;28;20070;-75
2022/01/07 08:12:53;;;;;;;14.18;10.70;;;4.00;99.90;;;;;;5071653;28;20119;-74
2022/01/07 08:18:04;;;;;;;16.33;10.60;;;4.10;99.90;;;;;;5070491;28;20127;-72
2022/01/07 08:20:30;;;;;;;15.77;11.13;;;4.20;99.90;;;;;;5071325;28;20045;-73
2022/01/07 08:22:56;;;;;;;14.85;10.50;;;4.10;99.90;;;;;;5070540;28;20525;-73
2022/01/07 08:25:23;;;;;;;14.80;10.38;;;4.20;99.90;;;;;;5070148;28;20396;-73
2022/01/07 08:27:50;;;;;;;16.17;11.35;;;4.20;99.90;;;;;;5070038;28;20140;-73
2022/01/07 08:30:23;;;;;;;14.00;9.77;;;4.20;99.90;;;;;;5061706;28;20172;-74
2022/01/07 08:35:37;;;;;;;18.67;10.60;;;4.20;99.90;;;;;;5070153;28;20098;-74
2022/01/07 08:38:03;;;;;;;17.55;11.38;;;4.20;99.90;;;;;;5053915;28;20093;-73
2022/01/07 08:40:29;;;;;;;19.75;11.05;;;4.30;99.90;;;;;;5048059;28;20040;-73
2022/01/07 08:42:55;;;;;;;20.73;11.13;;;4.40;99.90;;;;;;5035294;28;20055;-73
2022/01/07 08:45:21;;;;;;;18.17;10.05;;;4.40;99.90;;;;;;5060922;28;20036;-74
2022/01/07 08:47:46;;;;;;;18.55;10.77;;;4.40;99.90;;;;;;5054077;28;20368;-74
2022/01/07 08:50:12;;;;;;;16.70;11.13;;;4.40;99.90;;;;;;5048464;28;20047;-73
2022/01/07 08:52:38;;;;;;;17.70;11.20;;;4.40;99.90;;;;;;5062833;28;20514;-74
2022/01/07 08:55:04;;;;;;;18.52;11.50;;;4.40;99.90;;;;;;5057836;28;20045;-73
2022/01/07 08:57:30;;;;;;;19.10;11.23;;;4.50;99.90;;;;;;5033925;28;20552;-73
2022/01/07 08:59:56;;;;;;;18.80;11.60;;;4.50;99.90;;;;;;5063573;28;20044;-72
2022/01/07 09:02:21;;;;;;;16.75;11.90;;;4.50;99.90;;;;;;5070002;28;20040;-72
2022/01/07 09:04:47;;;;;;;17.25;11.70;;;4.50;99.90;;;;;;5047602;28;20047;-73
2022/01/07 09:07:13;;;;;;;14.90;11.82;;;4.50;99.90;;;;;;5052917;28;20628;-73
2022/01/07 09:09:39;;;;;;;19.02;12.13;;;4.60;99.90;;;;;;5056759;28;20044;-73
2022/01/07 09:12:05;;;;;;;;;;;4.60;99.90;;;;;;5067574;28;20040;-72
2022/01/07 09:14:31;;;;;;;18.92;12.23;;;4.60;99.90;;;;;;5048671;28;19916;-73
2022/01/07 09:16:57;;;;;;;20.60;12.20;;;4.70;99.90;;;;;;5069884;28;20133;-72
2022/01/07 09:19:24;;;;;;;18.30;11.70;;;4.70;99.90;;;;;;5052320;28;20094;-72
2022/01/07 09:21:50;;;;;;;17.60;11.80;;;4.80;99.90;;;;;;5067413;28;20044;-73
2022/01/07 09:24:15;;;;;;;19.00;11.90;;;4.80;99.90;;;;;;5056169;28;20051;-73
2022/01/07 09:26:42;;;;;;;19.00;12.00;;;4.80;99.90;;;;;;5032170;28;20067;-72
2022/01/07 09:29:08;;;;;;;16.30;11.73;;;4.80;99.90;;;;;;5067528;28;20048;-73
2022/01/07 09:31:33;;;;;;;19.35;12.43;;;4.80;99.90;;;;;;5069116;28;20039;-73
2022/01/07 09:33:59;;;;;;;21.92;13.00;;;4.90;99.90;;;;;;5067609;28;20040;-72
2022/01/07 09:36:25;;;;;;;20.10;12.95;;;4.80;99.90;;;;;;5067181;28;20046;-72
2022/01/07 09:38:51;;;;;;;21.70;13.60;;;4.90;99.90;;;;;;5070778;28;20496;-79
2022/01/07 09:41:16;;;;;;;18.63;12.93;;;4.90;99.90;;;;;;5048585;28;20095;-80
2022/01/07 09:43:43;;;;;;;17.70;12.88;;;4.90;99.90;;;;;;5072782;28;20063;-80
2022/01/07 09:46:13;;;;;;;19.92;12.77;;;5.00;99.90;;;;;;5047673;28;20033;-72
2022/01/07 09:48:40;;;;;;;20.02;12.88;;;5.00;99.90;;;;;;5068355;28;20101;-72
2022/01/07 09:51:06;;;;;;;20.08;12.80;;;5.00;99.90;;;;;;5048753;28;20036;-72
2022/01/07 09:53:31;;;;;;;20.27;12.43;;;5.00;99.90;;;;;;5087833;28;20483;-72
2022/01/07 09:55:57;;;;;;;19.08;12.20;;;5.00;99.90;;;;;;5085547;28;20052;-73
2022/01/07 09:58:22;;;;;;;19.02;12.07;;;5.00;99.90;;;;;;5039232;28;20111;-72
2022/01/07 10:00:48;;;;;;;18.35;10.98;;;5.00;99.90;;;;;;5050800;28;20049;-72
2022/01/07 10:03:16;;;;;;;16.60;11.30;;;5.00;99.90;;;;;;5069106;28;20127;-72
2022/01/07 10:05:44;;;;;;;16.13;11.00;;;5.00;99.90;;;;;;5032924;28;20037;-73
2022/01/07 10:08:29;;;;;;;16.33;10.23;;;5.00;99.90;;;;;;5052574;28;20128;-73
2022/01/07 10:11:16;;;;;;;17.00;9.15;;;5.00;99.90;;;;;;5061972;28;20052;-73
2022/01/07 10:13:47;;;;;;;15.05;7.85;;;5.00;99.90;;;;;;5067948;28;20040;-72
2022/01/07 10:16:15;;;;;;;8.63;5.85;;;5.00;99.90;;;;;;5084955;28;20045;-72
2022/01/07 10:18:41;;;;;;;6.32;3.97;;;4.90;99.90;;;;;;5068500;28;20090;-72
2022/01/07 10:21:09;;;;;;;6.05;2.47;;;4.90;99.90;;;;;;5082306;28;20049;-72
2022/01/07 10:23:35;;;;;;;4.05;1.90;;;4.80;99.90;;;;;;5064810;28;20037;-73
2022/01/07 10:26:00;;;;;;;4.32;2.13;;;4.70;99.90;;;;;;5036159;28;20388;-72
2022/01/07 10:28:31;;;;;;;4.22;2.10;;;4.70;99.90;;;;;;5069635;28;20057;-72
2022/01/07 10:31:02;;;;;;;4.50;2.40;;;4.60;99.90;;;;;;5053956;28;20051;-72
2022/01/07 10:33:33;;;;;;;4.60;2.40;;;4.60;99.90;;;;;;5055581;28;20040;-73
2022/01/07 10:36:08;;;;;;;7.07;2.88;;;4.60;99.90;;;;;;5060959;28;20048;-73
2022/01/07 10:38:36;;;;;;;5.57;2.78;;;4.60;99.90;;;;;;5051421;28;20047;-73
2022/01/07 10:41:03;;;;;;;5.45;2.80;;;4.70;99.90;;;;;;5062966;28;20463;-73
2022/01/07 10:43:33;;;;;;;4.63;2.90;;;4.80;99.90;;;;;;5069673;28;20052;-72
2022/01/07 10:46:20;;;;;;;5.28;2.72;;;4.90;99.90;;;;;;5061087;28;20127;-73
2022/01/07 10:48:56;;;;;;;3.42;2.53;;;5.00;99.90;;;;;;5069003;28;20097;-73
2022/01/07 10:51:23;;;;;;;7.63;2.63;;;5.10;99.90;;;;;;5066073;28;20040;-72
2022/01/07 10:54:12;;;;;;;4.22;1.80;;;5.00;99.90;;;;;;5052087;28;20052;-72
2022/01/07 10:56:41;;;;;;;5.78;2.00;;;5.00;99.90;;;;;;5045183;28;20044;-72
2022/01/07 10:59:16;;;;;;;4.50;1.65;;;4.80;99.90;;;;;;5061841;28;20044;-72
2022/01/07 11:01:43;;;;;;;4.57;1.75;;;4.70;99.90;;;;;;5054261;28;20055;-73
2022/01/07 11:04:12;;;;;;;3.53;1.60;;;4.80;99.90;;;;;;5069890;28;20097;-72
2022/01/07 11:06:38;;;;;;;4.35;1.92;;;4.70;99.90;;;;;;5070283;28;20402;-72
2022/01/07 11:09:09;;;;;;;6.05;1.55;;;4.70;99.90;;;;;;5069062;28;20049;-73
2022/01/07 11:12:01;;;;;;;5.43;1.55;;;4.70;99.90;;;;;;5067039;28;20036;-72
2022/01/07 11:14:29;;;;;;;6.07;1.60;;;4.80;99.90;;;;;;5069882;28;20131;-73
2022/01/07 11:16:58;;;;;;;4.82;1.48;;;4.80;99.90;;;;;;5058258;28;20044;-72
2022/01/07 11:19:28;;;;;;;4.45;1.50;;;4.80;99.90;;;;;;5068775;28;20115;-72
2022/01/07 11:21:55;;;;;;;4.38;2.10;;;4.80;99.90;;;;;;5070692;28;20044;-73
2022/01/07 11:24:55;;;;;;;4.82;1.83;;;4.80;99.90;;;;;;5049935;28;20040;-73
2022/01/07 11:27:28;;;;;;;6.18;2.65;;;4.90;99.90;;;;;;5070406;28;20057;-73
2022/01/07 11:30:02;;;;;;;6.07;2.35;;;5.20;99.90;;;;;;5053294;28;20052;-73
2022/01/07 11:32:28;;;;;;;3.63;2.20;;;5.30;99.90;;;;;;5070912;28;20044;-73
2022/01/07 11:34:55;;;;;;;6.45;2.90;;;5.70;99.90;;;;;;5063586;28;20132;-73
2022/01/07 11:37:33;;;;;;;6.40;3.60;;;5.90;99.90;;;;;;5062422;28;20040;-73
2022/01/07 11:39:59;;;;;;;7.65;3.85;;;6.20;99.90;;;;;;5069655;28;20040;-74
2022/01/07 11:42:39;;;;;;;6.38;3.63;;;6.40;99.90;;;;;;5033220;28;20437;-73
2022/01/07 11:45:36;;;;;;;8.82;3.88;;;6.40;99.90;;;;;;5057167;28;20399;-73
2022/01/07 11:48:11;;;;;;;11.30;4.97;;;6.60;99.90;;;;;;5070287;28;20430;-73
2022/01/07 11:50:48;;;;;;;10.27;4.95;;;6.60;99.90;;;;;;5069883;28;20293;-73
2022/01/07 11:53:14;;;;;;;;;;;6.60;99.90;;;;;;5070918;28;20048;-73
2022/01/07 11:55:41;;;;;;;11.25;4.97;;;6.70;99.90;;;;;;5060502;28;20399;-73
2022/01/07 11:58:12;;;;;;;10.90;4.80;;;6.60;99.90;;;;;;5056315;28;20040;-74
2022/01/07 12:00:47;;;;;;;13.13;5.25;;;6.70;99.90;;;;;;5068994;28;20049;-74
2022/01/07 12:03:13;;;;;;;9.02;4.90;;;6.70;99.90;;;;;;5069891;28;20041;-74
2022/01/07 12:05:39;;;;;;;12.43;5.25;;;6.80;99.90;;;;;;5061673;28;20398;-74
2022/01/07 12:08:04;;;;;;;12.10;5.72;;;6.80;99.90;;;;;;5038685;28;20123;-74
2022/01/07 12:10:30;;;;;;;11.75;5.50;;;6.70;99.90;;;;;;5046510;28;20040;-74
2022/01/07 12:13:00;;;;;;;21.00;6.13;;;6.70;99.90;;;;;;5070157;28;20090;-74
2022/01/07 12:15:27;;;;;;;11.75;4.88;;;6.40;99.90;;;;;;5051380;28;20055;-74
2022/01/07 12:17:53;;;;;;;12.88;5.90;;;6.20;99.90;;;;;;5068018;28;20051;-74
2022/01/07 12:20:46;;;;;;;9.50;4.97;;;6.10;99.90;;;;;;5044502;28;20040;-74
2022/01/07 12:23:19;;;;;;;8.85;5.47;;;6.00;99.90;;;;;;5052548;28;20086;-74
2022/01/07 12:25:50;;;;;;;14.55;6.40;;;6.00;99.90;;;;;;5040099;28;20036;-74
2022/01/07 12:28:16;;;;;;;11.15;5.90;;;6.00;99.90;;;;;;5054459;28;20143;-74
2022/01/07 12:30:43;;;;;;;11.35;6.35;;;6.20;99.90;;;;;;5033254;28;20124;-74
2022/01/07 12:33:10;;;;;;;12.88;5.40;;;6.30;99.90;;;;;;5047597;28;20070;-73
2022/01/07 12:35:37;;;;;;;11.52;5.90;;;6.50;99.90;;;;;;5038726;28;20077;-74
2022/01/07 12:38:14;;;;;;;12.57;5.50;;;6.50;99.90;;;;;;5062959;28;20054;-74
2022/01/07 12:40:39;;;;;;;;;;;6.50;99.90;;;;;;5065241;28;20471;-74
2022/01/07 12:43:05;;;;;;;10.90;5.25;;;6.60;99.90;;;;;;5053157;28;19942;-74
2022/01/07 12:45:31;;;;;;;9.50;3.88;;;6.50;99.90;;;;;;5050498;28;20044;-74
2022/01/07 12:47:57;;;;;;;7.78;4.05;;;6.50;99.90;;;;;;5051425;28;20098;-74
2022/01/07 12:50:26;;;;;;;7.25;3.45;;;6.40;99.90;;;;;;5059798;28;20049;-74
2022/01/07 12:52:51;;;;;;;6.20;3.28;;;6.30;99.90;;;;;;5066507;28;20139;-74
2022/01/07 12:55:26;;;;;;;9.02;3.60;;;6.30;99.90;;;;;;5091376;28;20062;-74
2022/01/07 12:58:04;;;;;;;7.65;3.20;;;6.30;99.90;;;;;;5061294;28;20437;-74
2022/01/07 13:00:32;;;;;;;9.88;3.72;;;6.30;99.90;;;;;;5098760;28;20124;-74
2022/01/07 13:02:59;;;;;;;7.95;3.47;;;6.30;99.90;;;;;;5066841;28;20977;-73